Axis, Alabama
Current Conditions -  °F | °C
As of 3:53 PM on Tuesday 25 Nov 2014 (Local Time) from KBFM Reporting Station
Overcast Overcast  
Wind Chill: 14°   Ceiling: 11000
Heat Index: 14°   Visibility: 10mi
Dew Point: -1°   Wind: 18mph
Humidity: 36%   Direction: 330°NNW
Pressure: 30.1"   Gusts: 26mph
Location:  30.93°N, 88.03°W
Report Text: KBFM 252153Z 33016G23KT 10SM OVC110 14/M01 A3010 RMK AO2 SLP193 T01441006
Loading
Personal Weather Stations






























Interactive Weather Map New forecast layout! Learn more

10-Day Weather Forecast

Advertisements
Track Severe Weather on mobile